Time;durP1;ratioP1;P1;durP2;ratioP2;P2;SDS_P1;SDS_P2;PMS_P1;PMS_P2;Temp;Humidity;BMP_temperature;BMP_pressure;BME280_temperature;BME280_humidity;BME280_pressure;Samples;Min_cycle;Max_cycle;Signal;HPM_P1;HPM_P2
2023/06/18 00:01:15;;;;;;;;;18.75;17.75;;;;;26.99;43.39;100618.63;4961088;28;45525;-65
2023/06/18 00:03:55;;;;;;;;;19.50;19.00;;;;;26.85;43.67;100595.41;4952126;28;45661;-65
2023/06/18 00:06:35;;;;;;;;;21.75;21.75;;;;;26.92;43.58;100609.34;4957695;28;46002;-65
2023/06/18 00:09:03;;;;;;;;;14.75;14.50;;;;;26.62;43.74;100576.72;4959512;28;45586;-65
2023/06/18 00:11:31;;;;;;;;;20.00;18.25;;;;;26.73;43.91;100600.28;4960190;28;45488;-65
2023/06/18 00:13:57;;;;;;;;;18.25;18.25;;;;;26.71;43.37;100587.75;4959288;28;48315;-65
2023/06/18 00:16:32;;;;;;;;;;;;;;;;;;;;;
2023/06/18 00:19:00;;;;;;;;;16.75;15.75;;;;;26.74;43.64;100598.41;4958988;28;68044;-65
2023/06/18 00:22:03;;;;;;;;;19.50;17.25;;;;;26.42;43.84;100545.91;4960698;28;45556;-65
2023/06/18 00:24:47;;;;;;;;;;;;;;;;;;;;;
2023/06/18 00:27:32;;;;;;;;;20.50;18.50;;;;;26.57;43.86;100579.06;4959661;28;71385;-65
2023/06/18 00:30:08;;;;;;;;;20.50;20.25;;;;;26.49;43.94;100567.19;4960745;28;45310;-65
2023/06/18 00:33:18;;;;;;;;;17.00;17.00;;;;;26.51;44.13;100573.38;4959003;28;46608;-66
2023/06/18 00:36:14;;;;;;;;;;;;;;;;;;;;;
2023/06/18 00:38:55;;;;;;;;;;;;;;;;;;;;;
2023/06/18 00:44:30;;;;;;;;;17.75;15.75;;;;;26.51;44.71;100600.72;4953155;28;45504;-65
2023/06/18 00:47:06;;;;;;;;;15.50;15.50;;;;;26.42;44.60;100603.38;4947757;28;45361;-65
2023/06/18 00:49:44;;;;;;;;;18.00;17.25;;;;;26.61;44.85;100634.34;4958793;28;45737;-65
2023/06/18 00:52:22;;;;;;;;;;;;;;;;;;;;;
2023/06/18 00:55:08;;;;;;;;;;;;;;;;;;;;;
2023/06/18 00:57:35;;;;;;;;;20.00;19.50;;;;;26.47;46.91;100651.34;4959190;28;75696;-65
2023/06/18 01:00:34;;;;;;;;;;;;;;;;;;;;;
2023/06/18 01:06:27;;;;;;;;;;;;;;;;;;;;;
2023/06/18 01:09:04;;;;;;;;;20.00;20.00;;;;;26.20;51.55;100636.69;4958478;28;73686;-65
2023/06/18 01:11:37;;;;;;;;;22.75;21.25;;;;;26.08;51.58;100625.09;4947962;28;45640;-65
2023/06/18 01:14:19;;;;;;;;;;;;;;;;;;;;;
2023/06/18 01:16:50;;;;;;;;;18.50;16.50;;;;;26.04;54.25;100645.56;4958824;28;72971;-65
2023/06/18 01:19:48;;;;;;;;;19.00;18.25;;;;;26.10;55.27;100668.72;4958250;28;45591;-65
2023/06/18 01:22:40;;;;;;;;;19.50;19.50;;;;;26.02;55.93;100653.06;4959710;28;45329;-65
2023/06/18 01:25:13;;;;;;;;;22.25;21.25;;;;;25.85;56.86;100633.69;4958497;28;45369;-65
2023/06/18 01:27:45;;;;;;;;;15.00;15.00;;;;;25.67;57.08;100613.63;4947129;28;45653;-65
2023/06/18 01:30:12;;;;;;;;;16.75;16.75;;;;;25.78;57.59;100624.38;4959849;28;45769;-65
2023/06/18 01:32:44;;;;;;;;;17.00;16.50;;;;;25.80;57.44;100625.06;4958415;28;45345;-65
2023/06/18 01:35:28;;;;;;;;;;;;;;;;;;;;;
2023/06/18 01:38:20;;;;;;;;;18.25;17.75;;;;;25.66;57.67;100618.25;4958555;28;72896;-65
2023/06/18 01:41:10;;;;;;;;;17.25;15.75;;;;;25.52;57.74;100592.25;4948836;28;45373;-65
2023/06/18 01:43:41;;;;;;;;;19.50;18.00;;;;;25.56;58.33;100598.31;4959609;28;45680;-65
2023/06/18 01:46:13;;;;;;;;;20.75;18.00;;;;;25.43;58.90;100581.38;4959789;28;45321;-65
2023/06/18 01:49:11;;;;;;;;;19.00;18.00;;;;;25.40;59.94;100592.63;4951775;28;45607;-65
2023/06/18 01:51:40;;;;;;;;;15.75;14.25;;;;;25.38;60.19;100590.03;4958237;28;46489;-65
2023/06/18 01:54:12;;;;;;;;;13.75;13.75;;;;;25.48;59.97;100618.16;4959175;28;45737;-65
2023/06/18 01:56:38;;;;;;;;;13.75;13.50;;;;;25.37;60.23;100612.88;4959561;28;45325;-65
2023/06/18 01:59:11;;;;;;;;;18.25;16.75;;;;;25.09;60.86;100577.31;4959543;28;45341;-65
2023/06/18 02:01:44;;;;;;;;;21.75;19.00;;;;;25.17;61.29;100587.47;4946620;28;45341;-65
2023/06/18 02:04:12;;;;;;;;;15.25;13.75;;;;;25.17;61.78;100601.13;4941870;28;45397;-65
2023/06/18 02:06:40;;;;;;;;;15.50;15.50;;;;;25.29;62.48;100623.69;4946900;28;45270;-65
2023/06/18 02:09:05;;;;;;;;;17.25;14.50;;;;;25.31;62.30;100638.94;4956457;28;45384;-65
2023/06/18 02:11:41;;;;;;;;;16.00;15.25;;;;;25.33;62.57;100649.72;4957575;28;45646;-65
2023/06/18 02:14:07;;;;;;;;;14.25;14.25;;;;;25.15;62.25;100635.91;4959124;28;45731;-65
2023/06/18 02:16:52;;;;;;;;;;;;;;;;;;;;;
2023/06/18 02:19:18;;;;;;;;;16.25;16.25;;;;;25.00;62.00;100615.56;4954141;28;72839;-65
2023/06/18 02:21:53;;;;;;;;;15.25;15.25;;;;;25.15;62.78;100633.19;4959054;28;45535;-65
2023/06/18 02:24:22;;;;;;;;;17.25;16.25;;;;;25.07;63.03;100628.44;4958949;28;45623;-65
2023/06/18 02:26:57;;;;;;;;;17.25;15.50;;;;;25.15;62.68;100616.81;4959233;28;45382;-65
2023/06/18 02:29:30;;;;;;;;;15.00;15.00;;;;;25.14;63.75;100615.94;4957119;28;45322;-65
2023/06/18 02:31:58;;;;;;;;;17.50;15.25;;;;;25.03;63.72;100594.28;4959102;28;46178;-65
2023/06/18 02:34:27;;;;;;;;;13.75;13.75;;;;;24.89;64.48;100570.16;4958751;28;45519;-65
2023/06/18 02:36:56;;;;;;;;;20.25;18.25;;;;;25.01;64.01;100595.41;4959058;28;45471;-65
2023/06/18 02:39:26;;;;;;;;;16.50;16.50;;;;;24.96;64.35;100587.69;4957344;28;45306;-65
2023/06/18 02:41:55;;;;;;;;;16.75;16.75;;;;;24.98;65.03;100587.53;4959621;28;46220;-65
2023/06/18 02:44:24;;;;;;;;;21.75;19.00;;;;;25.08;64.52;100613.81;4962375;28;45694;-65
2023/06/18 02:46:55;;;;;;;;;17.00;16.00;;;;;24.95;64.82;100588.69;4962254;28;45441;-65
2023/06/18 02:49:27;;;;;;;;;16.00;14.75;;;;;24.94;65.57;100589.69;4962394;28;45643;-65
2023/06/18 02:51:55;;;;;;;;;20.25;16.25;;;;;25.02;65.43;100606.19;4962041;28;45535;-65
2023/06/18 02:54:28;;;;;;;;;17.75;16.50;;;;;24.97;65.92;100597.56;4960459;28;45289;-65
2023/06/18 02:56:56;;;;;;;;;15.50;15.00;;;;;24.92;65.98;100580.78;4961519;28;45603;-65
2023/06/18 02:59:24;;;;;;;;;16.75;16.75;;;;;25.08;66.13;100618.41;4961978;28;45338;-65
2023/06/18 03:01:53;;;;;;;;;15.00;15.00;;;;;24.92;65.43;100598.00;4962078;28;45336;-65
2023/06/18 03:04:28;;;;;;;;;;;;;;;;;;;;;
2023/06/18 03:06:58;;;;;;;;;17.00;17.00;;;;;24.84;65.42;100605.22;4961014;28;67474;-65
2023/06/18 03:09:31;;;;;;;;;15.50;15.50;;;;;24.65;65.50;100573.34;4960690;28;45329;-65
2023/06/18 03:12:09;;;;;;;;;;;;;;;;;;;;;
2023/06/18 03:14:35;;;;;;;;;19.00;16.50;;;;;24.66;65.12;100584.13;4960746;28;71604;-65
2023/06/18 03:17:07;;;;;;;;;18.50;18.00;;;;;24.76;65.21;100605.97;4961798;28;45589;-65
2023/06/18 03:19:33;;;;;;;;;18.25;16.75;;;;;24.60;65.52;100584.69;4949594;28;45296;-65
2023/06/18 03:22:09;;;;;;;;;;;;;;;;;;;;;
2023/06/18 03:24:40;;;;;;;;;16.75;16.75;;;;;24.44;65.40;100585.25;4960706;28;71435;-65
2023/06/18 03:27:08;;;;;;;;;19.25;19.25;;;;;24.69;65.21;100632.97;4960740;28;45448;-65
2023/06/18 03:29:37;;;;;;;;;15.50;15.50;;;;;24.48;64.98;100599.47;4960392;28;45520;-65
2023/06/18 03:32:05;;;;;;;;;13.75;13.75;;;;;24.55;64.84;100619.75;4960086;28;47199;-65
2023/06/18 03:34:43;;;;;;;;;16.25;14.75;;;;;24.49;64.78;100609.38;4961182;28;45376;-65
2023/06/18 03:37:24;;;;;;;;;;;;;;;;;;;;;
2023/06/18 03:39:59;;;;;;;;;14.75;13.50;;;;;24.39;64.84;100615.69;4960238;28;71774;-65
2023/06/18 03:42:29;;;;;;;;;14.25;12.75;;;;;24.23;64.81;100597.16;4961515;28;45597;-65
2023/06/18 03:44:57;;;;;;;;;16.50;16.50;;;;;24.47;64.43;100647.69;4976191;28;45474;-65
2023/06/18 03:47:22;;;;;;;;;13.25;13.00;;;;;24.32;64.59;100621.84;4960159;28;45559;-65
2023/06/18 03:49:50;;;;;;;;;13.75;12.75;;;;;24.20;64.66;100610.22;4961196;28;46017;-65
2023/06/18 03:52:18;;;;;;;;;17.75;13.50;;;;;24.40;64.77;100643.81;4961252;28;45389;-65
2023/06/18 03:54:44;;;;;;;;;9.75;9.75;;;;;24.31;65.22;100631.91;4960823;28;45321;-65
2023/06/18 03:57:12;;;;;;;;;10.75;10.75;;;;;24.26;64.18;100617.84;4954810;28;45539;-65
2023/06/18 03:59:39;;;;;;;;;9.50;9.00;;;;;24.19;63.80;100613.94;4959928;28;45610;-65
2023/06/18 04:02:05;;;;;;;;;8.25;7.25;;;;;24.26;64.22;100630.59;4948994;28;45707;-65
2023/06/18 04:04:33;;;;;;;;;6.00;6.00;;;;;24.07;63.69;100601.44;4958815;28;45322;-65
2023/06/18 04:06:58;;;;;;;;;8.25;8.25;;;;;24.07;63.81;100601.44;4961188;28;45433;-65
2023/06/18 04:09:26;;;;;;;;;9.50;5.75;;;;;24.11;64.04;100605.63;4959141;28;45631;-65
2023/06/18 04:11:53;;;;;;;;;6.75;6.75;;;;;24.26;63.72;100634.19;4959651;28;47334;-65
2023/06/18 04:14:22;;;;;;;;;5.50;5.50;;;;;23.92;63.79;100573.72;4960762;28;45400;-65
2023/06/18 04:16:48;;;;;;;;;7.00;7.00;;;;;23.97;64.13;100580.47;4960950;28;45423;-65
2023/06/18 04:19:16;;;;;;;;;6.50;6.50;;;;;24.17;63.01;100615.94;4956931;28;45495;-65
2023/06/18 04:21:41;;;;;;;;;5.25;5.25;;;;;23.95;63.34;100585.19;4968320;28;46867;-65
2023/06/18 04:24:12;;;;;;;;;7.00;5.00;;;;;23.86;62.99;100586.06;4960498;28;45557;-65
2023/06/18 04:26:38;;;;;;;;;3.75;3.75;;;;;23.86;62.52;100584.19;4960258;28;45455;-65
2023/06/18 04:29:10;;;;;;;;;4.25;4.25;;;;;23.91;62.82;100589.22;4960716;28;45270;-65
2023/06/18 04:31:36;;;;;;;;;4.75;4.00;;;;;23.73;62.80;100569.06;4960770;28;45587;-65
2023/06/18 04:34:05;;;;;;;;;4.00;4.00;;;;;23.90;63.29;100603.84;4960428;28;45349;-65
2023/06/18 04:36:32;;;;;;;;;3.00;3.00;;;;;23.94;63.54;100604.41;4958876;28;45457;-65
2023/06/18 04:38:58;;;;;;;;;6.00;6.00;;;;;23.94;63.04;100607.13;4956540;28;45535;-65
2023/06/18 04:41:26;;;;;;;;;4.50;4.50;;;;;23.93;63.14;100611.75;4941116;28;47511;-65
2023/06/18 04:43:51;;;;;;;;;6.00;6.00;;;;;23.86;63.44;100603.25;4960573;28;45529;-65
2023/06/18 04:46:26;;;;;;;;;5.00;5.00;;;;;23.92;63.49;100611.88;4960531;28;45763;-65
2023/06/18 04:48:54;;;;;;;;;4.75;4.75;;;;;24.01;63.65;100633.72;4960656;28;45246;-65
2023/06/18 04:51:29;;;;;;;;;4.00;4.00;;;;;23.93;63.78;100619.06;4960214;28;45416;-65
2023/06/18 04:53:57;;;;;;;;;4.00;4.00;;;;;23.92;64.13;100628.22;4960181;28;45516;-65
2023/06/18 04:56:28;;;;;;;;;3.00;3.00;;;;;23.91;64.04;100630.09;4950838;28;45413;-65
2023/06/18 04:58:53;;;;;;;;;4.00;4.00;;;;;24.02;63.59;100656.38;4960466;28;45357;-65
2023/06/18 05:01:21;;;;;;;;;3.75;3.75;;;;;23.87;64.23;100628.63;4960015;28;46698;-65
2023/06/18 05:03:54;;;;;;;;;5.00;5.00;;;;;23.89;63.72;100631.22;4950002;28;45574;-65
2023/06/18 05:06:20;;;;;;;;;5.00;4.00;;;;;23.74;62.52;100598.00;4958170;28;45404;-65
2023/06/18 05:08:46;;;;;;;;;4.25;4.25;;;;;23.71;61.79;100601.03;4956634;28;45425;-65
2023/06/18 05:11:12;;;;;;;;;4.50;4.50;;;;;23.66;62.56;100593.28;4959305;28;45484;-65
2023/06/18 05:13:43;;;;;;;;;6.00;6.00;;;;;23.81;63.54;100619.13;4959524;28;45444;-65
2023/06/18 05:16:11;;;;;;;;;4.25;4.25;;;;;23.88;63.04;100637.69;4975038;28;45516;-65
2023/06/18 05:18:38;;;;;;;;;4.00;4.00;;;;;23.82;63.22;100625.47;4956987;28;45511;-65
2023/06/18 05:21:04;;;;;;;;;4.00;3.00;;;;;23.89;63.83;100647.59;4957830;28;47778;-65
2023/06/18 05:23:30;;;;;;;;;5.00;5.00;;;;;23.80;62.98;100638.34;4959871;28;45486;-65
2023/06/18 05:25:55;;;;;;;;;4.75;4.75;;;;;23.82;63.16;100639.97;4959336;28;45498;-65
2023/06/18 05:28:21;;;;;;;;;4.00;4.00;;;;;23.76;63.27;100637.75;4959979;28;45246;-65
2023/06/18 05:30:49;;;;;;;;;4.50;4.50;;;;;23.76;63.94;100631.47;4959044;28;45388;-65
2023/06/18 05:33:14;;;;;;;;;6.50;5.50;;;;;23.76;63.64;100639.63;4959878;28;45644;-65
2023/06/18 05:35:40;;;;;;;;;7.25;6.25;;;;;23.86;64.11;100648.75;4958445;28;45238;-65
2023/06/18 05:38:05;;;;;;;;;5.00;5.00;;;;;23.63;63.97;100612.63;4956827;28;45341;-65
2023/06/18 05:40:35;;;;;;;;;7.00;7.00;;;;;23.95;63.26;100657.94;4959710;28;45549;-65
2023/06/18 05:43:15;;;;;;;;;;;;;;;;;;;;;
2023/06/18 05:45:41;;;;;;;;;12.75;10.50;;;;;23.60;63.31;100621.06;4958969;28;69053;-65
2023/06/18 05:48:09;;;;;;;;;10.75;8.25;;;;;23.71;63.62;100645.50;4959647;28;45551;-65
2023/06/18 05:50:35;;;;;;;;;11.00;11.00;;;;;23.84;63.38;100672.56;4959862;28;45483;-65
2023/06/18 05:53:05;;;;;;;;;8.50;8.50;;;;;23.49;62.90;100622.03;4959210;28;45475;-65
2023/06/18 05:55:38;;;;;;;;;9.00;9.00;;;;;23.67;62.61;100666.72;4959735;28;45468;-65
2023/06/18 05:58:06;;;;;;;;;11.75;9.00;;;;;23.47;63.58;100629.44;4958769;28;45281;-65
2023/06/18 06:00:32;;;;;;;;;11.50;8.25;;;;;23.75;63.89;100676.06;4956545;28;45551;-65
2023/06/18 06:03:05;;;;;;;;;8.25;7.00;;;;;23.50;63.26;100645.53;4956004;28;45470;-65
2023/06/18 06:05:30;;;;;;;;;8.25;8.25;;;;;23.48;62.64;100648.38;4950760;28;46781;-65
2023/06/18 06:08:03;;;;;;;;;8.00;8.00;;;;;23.46;63.25;100644.09;4958106;28;45694;-65
2023/06/18 06:10:31;;;;;;;;;9.50;6.00;;;;;23.66;62.91;100675.88;4959309;28;45704;-65
2023/06/18 06:12:57;;;;;;;;;6.50;6.50;;;;;23.54;63.46;100657.91;4959185;28;45672;-65
2023/06/18 06:15:24;;;;;;;;;7.25;7.00;;;;;23.33;62.59;100622.50;4960834;28;45441;-65
2023/06/18 06:17:50;;;;;;;;;12.25;10.25;;;;;23.52;62.86;100664.47;4962589;28;45538;-65
2023/06/18 06:20:20;;;;;;;;;7.25;7.00;;;;;23.51;62.43;100665.47;4950303;28;46049;-65
2023/06/18 06:22:46;;;;;;;;;7.25;7.00;;;;;23.63;62.94;100683.47;4962256;28;45752;-65
2023/06/18 06:25:25;;;;;;;;;;;;;;;;;;;;;
2023/06/18 06:27:53;;;;;;;;;10.50;9.75;;;;;23.63;63.44;100667.97;4961619;28;71830;-65
2023/06/18 06:30:18;;;;;;;;;11.50;9.50;;;;;23.62;63.12;100666.25;4962335;28;46911;-65
2023/06/18 06:32:46;;;;;;;;;12.25;12.25;;;;;23.52;63.41;100654.41;4961025;28;45345;-65
2023/06/18 06:35:11;;;;;;;;;10.25;10.25;;;;;23.63;63.25;100676.13;4962388;28;45516;-65
2023/06/18 06:37:39;;;;;;;;;9.50;9.50;;;;;23.55;63.27;100667.78;4961423;28;45542;-65
2023/06/18 06:40:15;;;;;;;;;;;;;;;;;;;;;
2023/06/18 06:42:42;;;;;;;;;9.75;9.00;;;;;23.46;64.52;100649.53;4946576;28;72072;-66
2023/06/18 06:49:45;;;;;;;;;10.25;9.00;;;;;23.57;65.10;100657.63;4961329;28;45446;-70
2023/06/18 07:18:52;;;;;;;;;;;;;;;;;;;;;
2023/06/18 09:24:07;;;;;;;;;;;;;;;;;;;;;
2023/06/18 09:29:07;;;;;;;;;17.50;16.50;;;;;24.71;59.48;100614.56;4953134;23;74063;-76
2023/06/18 09:31:34;;;;;;;;;18.75;17.00;;;;;24.73;59.59;100614.44;4898837;29;45606;-76
2023/06/18 09:34:17;;;;;;;;;18.50;18.50;;;;;24.65;59.63;100593.31;4889670;29;45390;-77
2023/06/18 09:36:45;;;;;;;;;14.25;14.25;;;;;24.72;59.56;100599.91;4898980;29;45497;-76
2023/06/18 09:39:25;;;;;;;;;20.75;20.75;;;;;24.72;59.52;100599.06;4901015;29;46540;-76
2023/06/18 09:41:52;;;;;;;;;14.00;12.75;;;;;24.71;59.79;100592.75;4902282;28;45208;-77
2023/06/18 09:44:18;;;;;;;;;17.75;17.50;;;;;24.81;60.84;100609.13;4901057;29;45940;-77
2023/06/18 09:46:49;;;;;;;;;17.75;16.75;;;;;24.80;60.46;100595.63;4901802;29;45248;-78
2023/06/18 09:49:20;;;;;;;;;18.50;18.50;;;;;24.85;60.34;100602.34;4902798;28;45629;-77
2023/06/18 09:51:48;;;;;;;;;18.00;17.00;;;;;24.83;59.96;100587.97;4905807;29;45384;-77
2023/06/18 09:54:13;;;;;;;;;19.75;19.75;;;;;24.92;59.36;100597.16;4905189;29;45277;-77
2023/06/18 09:56:39;;;;;;;;;19.00;17.75;;;;;24.91;60.72;100587.25;4891491;28;45438;-77
2023/06/18 09:59:05;;;;;;;;;19.00;17.00;;;;;24.91;59.96;100590.00;4901813;29;45484;-76
2023/06/18 10:01:47;;;;;;;;;20.00;18.75;;;;;24.93;60.14;100577.91;4909978;28;45825;-77
2023/06/18 10:04:12;;;;;;;;;18.00;18.00;;;;;24.96;59.98;100584.94;4902083;28;45441;-77
2023/06/18 10:06:40;;;;;;;;;19.25;19.25;;;;;25.05;60.07;100589.50;4901979;29;45371;-77
2023/06/18 10:09:07;;;;;;;;;20.00;20.00;;;;;25.02;59.55;100578.88;4902998;28;45648;-77
2023/06/18 10:11:34;;;;;;;;;20.25;19.75;;;;;25.13;59.34;100591.53;4900430;28;45377;-77
2023/06/18 10:14:05;;;;;;;;;17.25;16.50;;;;;25.13;58.79;100592.38;4905778;28;45490;-77
2023/06/18 10:16:33;;;;;;;;;19.25;16.75;;;;;25.23;58.30;100605.16;4896784;29;45445;-77
2023/06/18 10:19:23;;;;;;;;;20.75;20.00;;;;;25.26;58.13;100594.81;4901085;29;45447;-78
2023/06/18 10:21:58;;;;;;;;;18.00;18.00;;;;;25.32;57.76;100587.88;4898694;28;45511;-84
2023/06/18 10:24:31;;;;;;;;;16.50;15.75;;;;;25.31;58.46;100578.84;4894995;29;45316;-85
2023/06/18 10:26:56;;;;;;;;;17.25;17.25;;;;;25.36;57.15;100572.06;4906249;28;45280;-83
2023/06/18 10:29:23;;;;;;;;;19.50;19.50;;;;;25.43;57.02;100574.03;4902109;28;45940;-85
2023/06/18 10:31:50;;;;;;;;;17.25;15.75;;;;;25.47;57.24;100575.44;4911268;28;46130;-85
2023/06/18 10:34:17;;;;;;;;;18.25;16.00;;;;;25.51;56.68;100571.41;4904121;29;45342;-84
2023/06/18 10:36:44;;;;;;;;;16.25;14.75;;;;;25.51;57.02;100563.22;4904860;29;45584;-80
2023/06/18 10:39:10;;;;;;;;;20.00;18.75;;;;;25.57;57.43;100572.69;4887959;29;48087;-80
2023/06/18 10:41:36;;;;;;;;;21.50;20.75;;;;;25.58;56.81;100568.94;4887084;29;46359;-80
2023/06/18 10:44:01;;;;;;;;;20.75;19.00;;;;;25.62;56.81;100570.34;4892587;29;45346;-80
2023/06/18 10:46:28;;;;;;;;;19.00;16.00;;;;;25.57;56.83;100553.53;4899599;28;45387;-79
2023/06/18 10:49:17;;;;;;;;;19.75;19.50;;;;;25.69;56.06;100559.66;4903819;29;47567;-80
2023/06/18 10:52:10;;;;;;;;;20.75;20.75;;;;;25.63;57.15;100547.47;4904610;28;45474;-80
2023/06/18 10:54:37;;;;;;;;;17.75;16.50;;;;;25.73;56.02;100552.91;4880706;29;45348;-80
2023/06/18 10:57:03;;;;;;;;;21.00;21.00;;;;;25.74;55.98;100551.88;4903779;29;45948;-85
2023/06/18 10:59:43;;;;;;;;;23.00;22.00;;;;;25.71;56.32;100544.00;4904269;29;45456;-84
2023/06/18 11:02:09;;;;;;;;;19.50;19.00;;;;;25.79;56.42;100552.25;4906832;28;45450;-85
2023/06/18 11:04:35;;;;;;;;;18.50;18.50;;;;;25.77;55.94;100540.63;4904465;28;45340;-84
2023/06/18 11:07:31;;;;;;;;;22.50;21.75;;;;;25.91;54.43;100546.59;4887760;29;45335;-85
2023/06/18 11:09:58;;;;;;;;;18.75;18.75;;;;;25.94;55.29;100546.28;4884687;28;46217;-85
2023/06/18 11:12:26;;;;;;;;;19.50;18.75;;;;;26.01;54.90;100542.81;4902201;28;45328;-85
2023/06/18 11:15:17;;;;;;;;;18.25;18.25;;;;;26.08;55.20;100537.59;4901966;29;45400;-85
2023/06/18 11:17:50;;;;;;;;;16.75;16.50;;;;;26.09;55.37;100531.06;4892511;29;45402;-84
2023/06/18 11:20:20;;;;;;;;;21.75;21.25;;;;;26.20;54.88;100536.31;4904054;29;45281;-85
2023/06/18 11:22:47;;;;;;;;;19.25;17.75;;;;;26.26;54.49;100526.63;4892355;29;46691;-85
2023/06/18 11:25:14;;;;;;;;;18.25;17.50;;;;;26.31;54.74;100526.16;4887576;29;45371;-84
2023/06/18 11:27:41;;;;;;;;;20.00;19.50;;;;;26.35;54.87;100527.56;4904504;29;45332;-84
2023/06/18 11:30:12;;;;;;;;;22.50;21.00;;;;;26.41;54.88;100524.19;4892055;29;45336;-85
2023/06/18 11:32:38;;;;;;;;;18.75;18.50;;;;;26.49;54.76;100524.25;4891641;29;45402;-85
2023/06/18 11:35:08;;;;;;;;;18.25;17.25;;;;;26.50;54.41;100509.56;4912310;28;45255;-85
2023/06/18 11:37:35;;;;;;;;;18.75;18.50;;;;;26.53;54.72;100506.50;4903915;29;45321;-85
2023/06/18 11:40:01;;;;;;;;;19.75;19.00;;;;;26.54;54.50;100494.53;4903247;28;48105;-85
2023/06/18 11:42:26;;;;;;;;;16.75;16.00;;;;;26.69;54.77;100514.00;4900932;28;45380;-85
2023/06/18 11:44:55;;;;;;;;;16.00;16.00;;;;;26.78;54.28;100509.44;4904291;29;45333;-85
2023/06/18 11:47:21;;;;;;;;;18.25;16.75;;;;;26.78;54.29;100484.78;4904138;29;45261;-85
2023/06/18 11:49:49;;;;;;;;;17.75;17.75;;;;;26.87;54.06;100492.06;4903740;29;45399;-85
2023/06/18 11:52:23;;;;;;;;;16.25;15.50;;;;;26.92;53.81;100478.72;4902540;29;45575;-84
2023/06/18 11:54:49;;;;;;;;;21.25;19.50;;;;;26.97;53.04;100478.25;4903823;29;45254;-85
2023/06/18 11:57:16;;;;;;;;;18.00;18.00;;;;;27.02;53.85;100477.75;4903928;29;45363;-85
2023/06/18 11:59:43;;;;;;;;;20.75;20.00;;;;;27.09;53.91;100468.72;4893407;29;47328;-85
2023/06/18 12:02:14;;;;;;;;;19.50;18.00;;;;;27.15;54.12;100459.00;4903875;28;45384;-85
2023/06/18 12:04:41;;;;;;;;;15.75;14.25;;;;;27.18;53.26;100440.34;4903628;29;45321;-85
2023/06/18 12:07:07;;;;;;;;;19.00;17.50;;;;;27.21;52.86;100430.06;4903923;29;45588;-85
2023/06/18 12:09:36;;;;;;;;;16.00;15.25;;;;;27.20;52.59;100415.53;4907070;28;45396;-84
2023/06/18 12:12:28;;;;;;;;;15.75;15.00;;;;;27.43;52.19;100442.31;4893875;29;45389;-85
2023/06/18 12:15:03;;;;;;;;;15.50;14.75;;;;;27.50;52.24;100438.75;4892818;29;45309;-85
2023/06/18 12:17:42;;;;;;;;;13.50;13.50;;;;;27.54;51.99;100429.16;4903452;29;45495;-85
2023/06/18 12:20:12;;;;;;;;;13.75;13.75;;;;;27.59;51.85;100423.19;4886743;29;47206;-85
2023/06/18 12:22:39;;;;;;;;;14.25;14.00;;;;;27.67;51.43;100431.41;4903047;29;45300;-85
2023/06/18 12:25:05;;;;;;;;;14.50;14.50;;;;;27.70;51.30;100414.63;4886775;29;45302;-85
2023/06/18 12:27:30;;;;;;;;;15.75;15.75;;;;;27.80;51.64;100419.09;4903326;29;45375;-85
2023/06/18 12:30:00;;;;;;;;;16.00;14.75;;;;;27.80;51.32;100405.38;4893398;29;45906;-85
2023/06/18 12:32:25;;;;;;;;;13.75;13.00;;;;;27.89;51.03;100410.69;4901937;28;45270;-85
2023/06/18 12:34:50;;;;;;;;;12.75;12.75;;;;;27.91;51.26;100418.75;4892930;28;45809;-85
2023/06/18 12:37:16;;;;;;;;;12.00;12.00;;;;;27.99;51.44;100417.94;4904864;28;45595;-85
2023/06/18 12:40:11;;;;;;;;;11.25;10.75;;;;;28.02;50.25;100415.72;4885947;29;55530;-85
2023/06/18 12:42:37;;;;;;;;;10.50;10.00;;;;;28.05;49.31;100412.63;4893330;29;45323;-85
2023/06/18 12:45:03;;;;;;;;;7.75;7.25;;;;;28.08;49.31;100415.03;4886463;29;45437;-85
2023/06/18 12:47:30;;;;;;;;;12.00;12.00;;;;;28.09;49.56;100408.50;4903357;29;45264;-85
2023/06/18 12:49:56;;;;;;;;;12.50;12.50;;;;;28.01;49.61;100396.69;4902894;29;45373;-85
2023/06/18 12:52:25;;;;;;;;;11.00;11.00;;;;;28.13;49.68;100419.13;4902545;28;45185;-85
2023/06/18 12:54:50;;;;;;;;;11.25;11.25;;;;;28.09;49.75;100397.53;4903010;29;45300;-85
2023/06/18 12:57:16;;;;;;;;;12.00;12.00;;;;;28.13;49.57;100399.94;4903035;29;47503;-85
2023/06/18 12:59:50;;;;;;;;;12.00;10.75;;;;;28.19;50.18;100404.75;4902703;29;45606;-85
2023/06/18 13:02:19;;;;;;;;;12.00;12.00;;;;;28.18;50.71;100398.38;4901973;29;45463;-85
2023/06/18 13:04:45;;;;;;;;;11.50;11.50;;;;;28.24;50.21;100394.09;4902956;29;45336;-84
2023/06/18 13:07:11;;;;;;;;;11.00;10.75;;;;;28.26;50.25;100389.28;4902689;29;45440;-85
2023/06/18 13:09:37;;;;;;;;;14.25;11.75;;;;;28.30;50.24;100385.19;4909080;28;45331;-85
2023/06/18 13:12:03;;;;;;;;;13.00;13.00;;;;;28.30;50.40;100381.56;4902243;29;45482;-85
2023/06/18 13:14:28;;;;;;;;;13.50;9.75;;;;;28.28;50.10;100382.59;4902664;29;45334;-85
2023/06/18 13:16:53;;;;;;;;;13.25;13.25;;;;;28.35;49.87;100382.75;4902495;29;45373;-85
2023/06/18 13:19:19;;;;;;;;;10.75;10.75;;;;;28.37;49.63;100380.69;4902694;29;46112;-85
2023/06/18 13:21:45;;;;;;;;;12.25;12.25;;;;;28.40;49.88;100374.84;4902601;29;45466;-85
2023/06/18 13:24:10;;;;;;;;;11.00;11.00;;;;;28.45;50.38;100366.94;4900995;29;45320;-85
2023/06/18 13:26:36;;;;;;;;;15.25;13.00;;;;;28.39;49.60;100344.84;4902992;29;45442;-85
2023/06/18 13:29:03;;;;;;;;;14.25;14.25;;;;;28.50;49.72;100360.06;4885411;29;48362;-85
2023/06/18 13:31:28;;;;;;;;;12.75;10.75;;;;;28.44;49.57;100343.28;4901588;29;45269;-85
2023/06/18 13:33:53;;;;;;;;;12.75;11.25;;;;;28.45;49.97;100333.13;4902623;29;45577;-85
2023/06/18 13:36:20;;;;;;;;;13.50;13.50;;;;;28.55;49.79;100335.69;4910283;28;45379;-85
2023/06/18 13:38:45;;;;;;;;;13.75;11.75;;;;;28.51;50.25;100309.63;4887194;29;47277;-84
2023/06/18 13:41:11;;;;;;;;;9.25;9.25;;;;;28.55;49.40;100328.31;4898274;29;45188;-85
2023/06/18 13:43:36;;;;;;;;;12.25;10.75;;;;;28.59;48.65;100312.38;4900106;29;45337;-84
2023/06/18 13:46:01;;;;;;;;;12.25;12.25;;;;;28.63;48.50;100322.84;4902437;29;45490;-85
2023/06/18 13:48:27;;;;;;;;;10.25;9.75;;;;;28.66;49.28;100327.09;4889652;29;52591;-85
2023/06/18 13:50:52;;;;;;;;;14.00;14.00;;;;;28.58;48.79;100310.66;4893286;29;45397;-85
2023/06/18 13:53:17;;;;;;;;;14.25;14.00;;;;;28.68;49.00;100316.78;4901721;29;45274;-85
2023/06/18 13:55:43;;;;;;;;;11.75;11.75;;;;;28.69;49.14;100309.44;4902214;29;45368;-85
2023/06/18 13:58:08;;;;;;;;;13.25;13.25;;;;;28.69;48.65;100309.44;4902192;29;45230;-85
2023/06/18 14:00:33;;;;;;;;;11.25;11.25;;;;;28.73;48.94;100308.88;4885531;29;45255;-85
2023/06/18 14:02:59;;;;;;;;;11.50;11.50;;;;;28.66;48.82;100298.78;4902359;29;45254;-85
2023/06/18 14:05:24;;;;;;;;;12.50;12.50;;;;;28.67;48.84;100287.63;4892195;29;45335;-85
2023/06/18 14:07:50;;;;;;;;;11.75;10.75;;;;;28.75;48.62;100303.19;4897721;28;46043;-85
2023/06/18 14:10:15;;;;;;;;;12.00;11.50;;;;;28.70;48.92;100289.16;4903162;28;45445;-85
2023/06/18 14:12:40;;;;;;;;;11.00;11.00;;;;;28.80;48.40;100306.25;4904431;28;45785;-85
2023/06/18 14:15:06;;;;;;;;;8.25;8.25;;;;;28.76;48.23;100294.78;4902273;29;45674;-85
2023/06/18 14:17:32;;;;;;;;;7.25;7.25;;;;;28.83;47.01;100293.03;4896162;29;46087;-85
2023/06/18 14:19:57;;;;;;;;;7.25;7.25;;;;;28.89;46.75;100293.34;4905784;28;45361;-85
2023/06/18 14:22:22;;;;;;;;;8.00;7.25;;;;;28.91;46.56;100286.63;4902456;28;45243;-85
2023/06/18 14:24:48;;;;;;;;;6.00;6.00;;;;;28.96;46.72;100286.09;4901272;29;45456;-86
2023/06/18 14:27:13;;;;;;;;;5.50;5.50;;;;;29.01;46.64;100272.66;4900383;28;45923;-85
2023/06/18 14:29:39;;;;;;;;;8.25;7.00;;;;;29.06;46.15;100267.47;4892514;29;45280;-85
2023/06/18 14:32:04;;;;;;;;;8.25;7.50;;;;;29.12;46.40;100266.75;4895463;28;45312;-85
2023/06/18 14:34:30;;;;;;;;;5.75;5.75;;;;;29.10;45.83;100255.09;4883965;29;45654;-85
2023/06/18 14:36:55;;;;;;;;;7.00;6.00;;;;;29.13;45.20;100262.13;4902138;28;57618;-85